Oxford, NC

6:51 AM EDT on July 06, 2015 (GMT -0400)
Berea - Shelton Hills | | Change Station
CLOSE
Current Station
Personal Weather Station
Location: Oxford, NC
Elevation: 463 ft
Nearby Weather Stations

Elev 463 ft 36.32 °N, 78.73 °W | Updated 12 minutes ago

Partly Cloudy
Partly Cloudy
68.5 °F
Feels Like 68.5 °F
N
3.2
Wind Variable Wind from SSE

Today
High -- | Low -- °F
--% Chance of Precip.
Yesterday
High -- | Low -- °F
Precip. -- in
6:02 AM 8:35 PM
Waning Gibbous, 76% visible
Pressure 30.12 in
Visibility 4.0 miles
Clouds Overcast 200 ft
Dew Point 68 °F
Humidity 99%
Rainfall 0.00 in
Snow Depth Not available.
UV 0 out of 12
Pollen 1.10 out of 12
Air Quality Not available.
Flu Activity Not available.
METAR KHNZ 061035Z AUTO 16006KT 4SM BR OVC002 21/19 A3012 RMK AO2 T02050193

More Conditions Fewer Conditions

Pressure 30.12 in
Visibility 4.0 miles
Clouds Overcast 200 ft
Dew Point 68 °F
Humidity 99%
Rainfall 0.00 in
Snow Depth Not available.
UV 0 out of 12
Pollen 1.10 out of 12
Air Quality Not available.
Flu Activity Not available.
METAR KHNZ 061035Z AUTO 16006KT 4SM BR OVC002 21/19 A3012 RMK AO2 T02050193

More Conditions Fewer Conditions

10-Day Weather Forecast

×

Almanac

Astronomy

Jul. 06, 2015 Rise Set
Actual Time
Civil Twilight
Nautical Twilight
Astronomical Twilight
Moon
Length of Visible Light
Length of Day
Tomorrow will be .
, % of the Moon is Illuminated

Today's Extremes

State Highs State Lows

Community

WunderPhotos

Upload Photos

1,835,531 photos uploaded!

WunderBlogs® & News

Nearby

Air Quality

  Air Quality AQ Index Pollutant
Not available.

Snow Depth

Station Depth Elevation

Earthquake Activity

City Distance Mag. Time & Date
Minimum magnitude displayed is 2.5.

Coastal Water Temperatures

Place Temperature

Stations

Nearby Weather Stations

Station Location Temp. Windchill Dew Point Humidity Wind Precip. Elev Updated Type